createdAt,value
2022-08-16T00:02:45.957Z,17.96
2022-08-16T00:24:04.668Z,17.86
2022-08-16T00:35:00.616Z,17.76
2022-08-16T00:46:00.802Z,17.37
2022-08-16T00:57:00.247Z,17.08
2022-08-16T01:07:55.647Z,17.08
2022-08-16T01:18:56.116Z,17.57
2022-08-16T01:29:58.590Z,18.06
2022-08-16T01:40:57.514Z,17.96
2022-08-16T01:51:58.933Z,18.35
2022-08-16T02:02:58.582Z,18.64
2022-08-16T02:24:31.528Z,19.13
2022-08-16T02:45:49.434Z,18.84
2022-08-16T02:56:53.190Z,19.13
2022-08-16T03:07:54.549Z,19.04
2022-08-16T03:18:55.687Z,19.04
2022-08-16T03:29:58.700Z,19.82
2022-08-16T03:41:00.249Z,19.92
2022-08-16T03:52:04.165Z,20.01
2022-08-16T04:03:03.999Z,19.62
2022-08-16T04:14:08.620Z,19.43
2022-08-16T04:25:07.528Z,19.43
2022-08-16T04:36:05.355Z,19.52
2022-08-16T04:57:30.105Z,19.91
2022-08-16T05:08:37.346Z,19.92
2022-08-16T05:19:39.643Z,19.72
2022-08-16T05:30:44.504Z,19.82
2022-08-16T05:41:44.723Z,19.92
2022-08-16T05:52:46.239Z,20.11
2022-08-16T06:03:44.182Z,20.50
2022-08-16T06:14:45.626Z,20.99
2022-08-16T06:25:52.966Z,21.38
2022-08-16T06:36:48.624Z,21.58
2022-08-16T06:47:53.466Z,21.87
2022-08-16T06:58:51.556Z,22.26
2022-08-16T07:09:53.119Z,22.75
2022-08-16T07:20:53.932Z,23.63
2022-08-16T07:31:54.033Z,23.63
2022-08-16T07:42:48.591Z,23.92
2022-08-16T07:53:47.330Z,23.92
2022-08-16T08:04:23.679Z,24.12
2022-08-16T08:15:25.528Z,24.22
2022-08-16T08:26:18.329Z,24.32
2022-08-16T08:37:14.639Z,24.51
2022-08-16T08:48:33.745Z,25.29
2022-08-16T08:59:20.140Z,25.78
2022-08-16T09:10:20.931Z,26.17
2022-08-16T09:21:20.574Z,26.56
2022-08-16T09:32:28.711Z,26.56
2022-08-16T09:43:57.897Z,26.17
2022-08-16T09:54:32.510Z,26.86
2022-08-16T10:05:30.907Z,27.05
2022-08-16T10:16:34.248Z,27.64
2022-08-16T10:27:46.280Z,27.74
2022-08-16T10:38:36.704Z,28.72
2022-08-16T10:49:31.163Z,29.30
2022-08-16T11:00:06.776Z,30.87
2022-08-16T11:11:14.174Z,31.45
2022-08-16T11:22:22.744Z,31.55
2022-08-16T11:33:12.058Z,29.69
2022-08-16T11:44:07.700Z,29.50
2022-08-16T11:55:13.480Z,32.63
2022-08-16T12:06:06.719Z,33.70
2022-08-16T12:17:01.901Z,35.86
2022-08-16T12:28:02.887Z,31.45
2022-08-16T12:38:54.846Z,32.63
2022-08-16T12:49:53.054Z,33.90
2022-08-16T13:00:54.381Z,36.74
2022-08-16T13:11:57.874Z,37.03
2022-08-16T13:22:51.331Z,38.89
2022-08-16T13:33:49.894Z,32.04
2022-08-16T13:44:56.037Z,30.57
2022-08-16T13:55:44.940Z,28.81
2022-08-16T14:06:47.049Z,28.03
2022-08-16T14:18:17.413Z,28.13
2022-08-16T14:28:50.986Z,28.32
2022-08-16T14:39:55.124Z,38.59
2022-08-16T14:51:01.732Z,37.81
2022-08-16T15:02:01.047Z,33.90
2022-08-16T15:12:50.889Z,35.95
2022-08-16T15:23:50.539Z,31.36
2022-08-16T15:34:51.301Z,28.52
2022-08-16T15:45:55.595Z,28.52
2022-08-16T15:56:53.188Z,29.11
2022-08-16T16:07:56.676Z,28.62
2022-08-16T16:18:54.437Z,28.42
2022-08-16T16:29:58.093Z,27.93
2022-08-16T16:40:54.654Z,27.35
2022-08-16T16:51:55.174Z,26.56
2022-08-16T17:02:59.637Z,26.07
2022-08-16T17:13:59.498Z,25.78
2022-08-16T17:25:01.438Z,25.39
2022-08-16T17:35:58.089Z,25.00
2022-08-16T17:46:57.966Z,24.51
2022-08-16T17:57:56.668Z,23.83
2022-08-16T18:08:48.582Z,23.24
2022-08-16T18:19:57.798Z,22.85
2022-08-16T18:31:00.771Z,22.36
2022-08-16T18:41:56.510Z,21.97
2022-08-16T18:52:50.435Z,21.58
2022-08-16T19:03:27.264Z,21.28
2022-08-16T19:14:25.552Z,20.99
2022-08-16T19:25:28.425Z,20.70
2022-08-16T19:36:32.325Z,20.31
2022-08-16T19:47:24.221Z,20.21
2022-08-16T19:58:23.042Z,20.11
2022-08-16T20:09:22.852Z,20.11
2022-08-16T20:20:22.305Z,20.11
2022-08-16T20:31:20.648Z,20.01
2022-08-16T20:42:21.780Z,20.11
2022-08-16T20:53:23.965Z,20.21
2022-08-16T21:04:21.046Z,20.31
2022-08-16T21:15:22.071Z,20.21
2022-08-16T21:26:19.070Z,20.11
2022-08-16T21:37:20.145Z,19.91
2022-08-16T21:48:19.011Z,19.62
2022-08-16T21:59:25.203Z,19.33
2022-08-16T22:11:06.422Z,18.94
2022-08-16T22:21:30.746Z,18.84
2022-08-16T22:32:31.185Z,18.74
2022-08-16T22:43:32.663Z,18.55
2022-08-16T22:54:40.939Z,18.45
2022-08-16T23:05:35.805Z,18.25
2022-08-16T23:16:36.631Z,17.96
2022-08-16T23:27:38.536Z,17.86
2022-08-16T23:38:40.870Z,17.76
2022-08-16T23:49:57.856Z,17.57
